Time;durP1;ratioP1;P1;durP2;ratioP2;P2;SDS_P1;SDS_P2;PMS_P1;PMS_P2;Temp;Humidity;BMP_temperature;BMP_pressure;BME280_temperature;BME280_humidity;BME280_pressure;Samples;Min_cycle;Max_cycle;Signal;HPM_P1;HPM_P2
2022/06/04 00:00:08;;;;;;;5.97;2.80;;;;;;;15.16;59.78;101717.63;5067037;28;20582;-85
2022/06/04 00:02:38;;;;;;;5.23;2.80;;;;;;;15.11;60.38;101709.25;5067061;28;20043;-84
2022/06/04 00:05:05;;;;;;;4.93;2.80;;;;;;;15.07;60.31;101715.38;5063613;28;20085;-86
2022/06/04 00:07:30;;;;;;;3.73;2.60;;;;;;;15.01;60.07;101715.22;5067016;28;20047;-85
2022/06/04 00:15:29;;;;;;;5.05;2.40;;;;;;;14.95;60.18;101699.72;5066258;28;20229;-84
2022/06/04 00:17:56;;;;;;;5.03;2.50;;;;;;;14.99;59.51;101705.56;5074514;28;20055;-85
2022/06/04 00:20:22;;;;;;;4.10;2.50;;;;;;;14.93;60.14;101688.19;5066585;28;20028;-85
2022/06/04 00:22:48;;;;;;;4.50;2.80;;;;;;;14.92;60.00;101691.97;5067267;28;20035;-85
2022/06/04 00:25:14;;;;;;;4.17;2.53;;;;;;;14.79;60.39;101678.41;5066383;28;20545;-85
2022/06/04 00:27:41;;;;;;;8.37;2.80;;;;;;;14.77;60.22;101688.69;5074118;28;20044;-85
2022/06/04 00:30:08;;;;;;;3.83;2.60;;;;;;;14.75;60.02;101702.56;5065959;28;20038;-85
2022/06/04 00:32:37;;;;;;;4.43;2.70;;;;;;;14.69;59.94;101687.91;5081784;28;20110;-85
2022/06/04 00:35:06;;;;;;;3.80;2.87;;;;;;;14.66;59.91;101695.69;5065651;28;20060;-86
2022/06/04 00:37:35;;;;;;;4.37;2.70;;;;;;;14.69;59.48;101698.81;5066164;28;20040;-86
2022/06/04 00:40:03;;;;;;;3.97;2.90;;;;;;;14.65;60.00;101696.75;5066038;28;20389;-87
2022/06/04 00:42:28;;;;;;;4.00;2.50;;;;;;;14.66;59.89;101702.00;5066007;28;20484;-85
2022/06/04 00:45:21;;;;;;;5.93;3.00;;;;;;;14.58;59.92;101702.22;5065917;28;20098;-85
2022/06/04 00:47:48;;;;;;;4.60;2.63;;;;;;;14.56;60.78;101706.22;5065456;28;20049;-85
2022/06/04 00:50:15;;;;;;;3.40;2.77;;;;;;;14.62;60.32;101700.72;5065981;28;20043;-86
2022/06/04 00:52:42;;;;;;;3.87;2.57;;;;;;;14.52;60.44;101689.44;5066056;28;20127;-85
2022/06/04 00:55:09;;;;;;;4.60;2.70;;;;;;;14.60;59.43;101691.06;5067929;28;20028;-85
2022/06/04 00:57:37;;;;;;;4.17;2.70;;;;;;;14.52;59.85;101692.16;5066125;28;20122;-87
2022/06/04 01:00:23;;;;;;;4.00;2.77;;;;;;;14.48;60.18;101699.09;5068172;28;20052;-87
2022/06/04 01:02:48;;;;;;;5.80;3.00;;;;;;;14.46;60.44;101714.84;5065163;28;20132;-85
2022/06/04 01:05:35;;;;;;;6.47;2.80;;;;;;;14.43;60.07;101721.56;5065330;28;20033;-84
2022/06/04 01:08:11;;;;;;;3.67;2.87;;;;;;;14.30;60.80;101735.25;5065868;28;20067;-85
2022/06/04 01:11:09;;;;;;;3.53;2.57;;;;;;;14.22;60.25;101714.50;5063869;28;20028;-84
2022/06/04 01:14:09;;;;;;;5.23;3.17;;;;;;;14.39;60.08;101752.19;5065482;28;20499;-85
2022/06/04 01:16:41;;;;;;;5.30;2.70;;;;;;;14.46;60.33;101762.03;5060564;28;20040;-85
2022/06/04 01:19:12;;;;;;;5.43;2.70;;;;;;;14.44;60.41;101766.88;5065431;28;20032;-84
2022/06/04 01:22:15;;;;;;;5.23;2.93;;;;;;;14.38;60.19;101783.25;5065342;28;20384;-85
2022/06/04 01:24:49;;;;;;;5.43;2.80;;;;;;;14.33;60.54;101771.13;5064973;28;21446;-84
2022/06/04 01:27:34;;;;;;;;;;;;;;;14.41;60.52;101764.56;5066319;28;20044;-84
2022/06/04 01:30:18;;;;;;;5.45;3.15;;;;;;;14.34;60.31;101755.56;5065465;28;19923;-86
2022/06/04 01:32:55;;;;;;;6.78;2.95;;;;;;;14.09;61.17;101772.63;5065049;28;20075;-85
2022/06/04 01:35:55;;;;;;;5.57;3.30;;;;;;;14.10;60.98;101768.00;5065706;28;20057;-84
2022/06/04 01:38:48;;;;;;;4.50;3.03;;;;;;;14.06;61.27;101761.31;5063649;28;20502;-84
2022/06/04 01:41:30;;;;;;;5.20;3.10;;;;;;;14.04;61.42;101756.06;5064454;28;20032;-85
2022/06/04 01:44:01;;;;;;;5.57;3.00;;;;;;;13.91;61.79;101756.94;5065457;28;20036;-84
2022/06/04 01:46:46;;;;;;;4.20;3.00;;;;;;;13.87;62.50;101761.16;5064252;28;20079;-84
2022/06/04 01:49:45;;;;;;;3.97;2.97;;;;;;;13.72;62.37;101752.34;5064436;28;20068;-87
2022/06/04 01:52:16;;;;;;;4.87;3.50;;;;;;;13.64;62.21;101767.84;5064891;28;20036;-85
2022/06/04 01:54:50;;;;;;;4.73;3.27;;;;;;;13.57;63.13;101764.31;5064669;28;20041;-85
2022/06/04 01:57:20;;;;;;;;;;;;;;;13.74;63.03;101785.66;5065427;28;20035;-85
2022/06/04 01:59:51;;;;;;;4.20;3.43;;;;;;;13.67;62.24;101788.38;5063977;28;20015;-83
2022/06/04 02:02:35;;;;;;;6.20;3.40;;;;;;;13.61;62.64;101776.44;5064891;28;20595;-85
2022/06/04 02:05:05;;;;;;;4.60;3.60;;;;;;;13.55;63.43;101785.44;5064775;28;20389;-85
2022/06/04 02:07:38;;;;;;;6.07;3.50;;;;;;;13.66;63.06;101792.16;5064652;28;20115;-84
2022/06/04 02:10:15;;;;;;;5.63;3.47;;;;;;;13.63;63.18;101795.31;5063058;28;20085;-85
2022/06/04 02:12:43;;;;;;;5.37;3.40;;;;;;;13.49;62.66;101781.69;5064368;28;20637;-85
2022/06/04 02:15:19;;;;;;;5.97;3.60;;;;;;;13.34;63.72;101749.19;5062030;28;20075;-84
2022/06/04 02:17:47;;;;;;;5.17;3.40;;;;;;;13.58;63.24;101770.59;5064203;28;20040;-84
2022/06/04 02:20:13;;;;;;;5.10;3.50;;;;;;;13.46;63.83;101744.00;5064484;28;20139;-83
2022/06/04 02:22:38;;;;;;;6.67;3.40;;;;;;;13.49;63.55;101765.34;5080693;28;20195;-85
2022/06/04 02:25:08;;;;;;;5.70;3.87;;;;;;;13.33;63.53;101746.66;5062824;28;20138;-86
2022/06/04 02:27:34;;;;;;;8.10;3.57;;;;;;;13.47;63.34;101780.22;5064367;28;20042;-85
2022/06/04 02:29:59;;;;;;;5.90;3.50;;;;;;;13.46;64.22;101771.22;5064418;28;20036;-86
2022/06/04 02:32:49;;;;;;;6.33;3.50;;;;;;;13.49;64.78;101775.38;5065065;28;20501;-85
2022/06/04 02:35:27;;;;;;;4.33;3.33;;;;;;;13.48;64.61;101780.00;5056723;28;20039;-85
2022/06/04 02:38:29;;;;;;;4.60;3.20;;;;;;;13.57;63.73;101787.97;5064588;28;20040;-85
2022/06/04 02:41:04;;;;;;;5.73;3.47;;;;;;;13.54;63.62;101772.88;5066315;28;20040;-84
2022/06/04 02:43:39;;;;;;;7.43;3.97;;;;;;;13.48;64.39;101779.16;5061647;28;20028;-86
2022/06/04 02:46:04;;;;;;;5.97;3.80;;;;;;;13.53;64.05;101782.09;5062180;28;20044;-85
2022/06/04 02:48:41;;;;;;;5.73;3.80;;;;;;;13.46;63.98;101754.88;5064383;28;20085;-84
2022/06/04 02:51:20;;;;;;;5.63;3.87;;;;;;;13.53;64.63;101760.31;5063814;28;20596;-85
2022/06/04 02:53:46;;;;;;;5.00;3.90;;;;;;;13.44;64.31;101753.41;5062851;28;20404;-84
2022/06/04 02:56:17;;;;;;;4.83;3.77;;;;;;;13.43;65.08;101738.13;5064098;28;20037;-85
2022/06/04 02:58:49;;;;;;;8.37;4.40;;;;;;;13.29;65.49;101743.50;5065806;28;20032;-84
2022/06/04 03:01:16;;;;;;;9.03;4.50;;;;;;;13.25;66.17;101742.25;5065802;28;20044;-85
2022/06/04 03:03:41;;;;;;;6.20;4.30;;;;;;;13.24;66.43;101737.84;5065344;28;20036;-84
2022/06/04 03:06:19;;;;;;;6.37;4.40;;;;;;;13.16;65.48;101727.16;5065488;28;20039;-86
2022/06/04 03:08:44;;;;;;;9.57;4.43;;;;;;;13.17;66.61;101726.13;5066247;28;20064;-85
2022/06/04 03:11:10;;;;;;;5.90;4.60;;;;;;;13.25;66.35;101730.53;5067003;28;21449;-84
2022/06/04 03:13:35;;;;;;;6.10;4.60;;;;;;;13.22;66.62;101731.78;5067087;28;20127;-85
2022/06/04 03:16:00;;;;;;;7.93;4.60;;;;;;;13.23;66.55;101733.47;5067538;28;20149;-86
2022/06/04 03:18:26;;;;;;;8.73;5.00;;;;;;;13.12;67.12;101718.59;5066889;28;20028;-84
2022/06/04 03:20:51;;;;;;;7.03;5.27;;;;;;;13.14;66.96;101712.94;5067478;28;20044;-86
2022/06/04 03:23:17;;;;;;;7.10;4.60;;;;;;;13.15;66.97;101715.47;5064778;28;20032;-86
2022/06/04 03:25:43;;;;;;;10.23;5.00;;;;;;;12.95;67.68;101726.31;5066849;28;20070;-86
2022/06/04 03:28:08;;;;;;;6.97;5.10;;;;;;;12.86;68.77;101711.22;5067266;28;20057;-85
2022/06/04 03:30:35;;;;;;;6.90;5.50;;;;;;;12.80;68.77;101712.06;5067267;28;20106;-84
2022/06/04 03:33:01;;;;;;;6.50;5.17;;;;;;;12.86;68.16;101719.38;5067047;28;20171;-85
2022/06/04 03:35:27;;;;;;;7.07;5.03;;;;;;;12.92;68.53;101717.69;5067692;28;20044;-84
2022/06/04 03:37:52;;;;;;;8.67;5.20;;;;;;;12.87;69.31;101707.47;5067136;28;20048;-84
2022/06/04 03:40:18;;;;;;;8.83;5.13;;;;;;;12.84;68.59;101714.13;5067080;28;20057;-84
2022/06/04 03:42:43;;;;;;;9.23;5.60;;;;;;;12.77;69.34;101723.31;5067062;28;20032;-85
2022/06/04 03:45:10;;;;;;;12.17;5.33;;;;;;;12.77;69.71;101724.19;5067160;28;20040;-85
2022/06/04 03:47:36;;;;;;;11.17;6.10;;;;;;;12.68;70.30;101728.13;5066879;28;20442;-84
2022/06/04 03:50:22;;;;;;;10.50;5.70;;;;;;;12.55;70.36;101725.34;5065704;28;20037;-84
2022/06/04 03:52:48;;;;;;;10.00;5.63;;;;;;;12.55;71.12;101733.50;5066614;28;20178;-85
2022/06/04 03:55:15;;;;;;;7.27;5.73;;;;;;;12.59;70.92;101732.91;5066546;28;20068;-85
2022/06/04 03:57:48;;;;;;;8.93;5.80;;;;;;;12.56;71.49;101740.63;5066516;28;20036;-84
2022/06/04 04:00:27;;;;;;;10.27;5.83;;;;;;;12.60;70.90;101750.88;5066649;28;20111;-85
2022/06/04 04:03:00;;;;;;;10.37;5.77;;;;;;;12.63;71.04;101745.06;5066654;28;20042;-84
2022/06/04 04:05:28;;;;;;;12.33;6.20;;;;;;;12.59;70.87;101724.75;5066657;28;20042;-86
2022/06/04 04:07:55;;;;;;;9.23;5.87;;;;;;;12.69;70.96;101739.81;5064865;28;20156;-87
2022/06/04 04:10:21;;;;;;;11.03;6.20;;;;;;;12.59;71.47;101753.78;5066664;28;20071;-86
2022/06/04 04:12:47;;;;;;;11.37;6.20;;;;;;;12.52;71.74;101761.09;5067578;28;20032;-84
2022/06/04 04:15:13;;;;;;;10.53;6.40;;;;;;;12.52;71.73;101756.50;5066571;28;20491;-86
2022/06/04 04:17:39;;;;;;;10.67;6.17;;;;;;;12.53;72.38;101760.06;5063608;28;20740;-85
2022/06/04 04:20:14;;;;;;;9.23;6.07;;;;;;;12.46;72.19;101757.31;5066599;28;20090;-87
2022/06/04 04:22:39;;;;;;;12.97;6.40;;;;;;;12.46;73.08;101770.91;5066111;28;20041;-86
2022/06/04 04:25:05;;;;;;;12.83;6.70;;;;;;;12.37;73.09;101751.19;5063844;28;20438;-86
2022/06/04 04:27:31;;;;;;;11.23;6.67;;;;;;;12.48;74.08;101768.81;5066561;28;20032;-85
2022/06/04 04:29:57;;;;;;;13.53;6.33;;;;;;;12.55;73.44;101760.69;5065911;28;20112;-85
2022/06/04 04:32:22;;;;;;;10.07;6.07;;;;;;;12.54;73.00;101757.13;5066362;28;20045;-85
2022/06/04 04:34:48;;;;;;;13.50;6.40;;;;;;;12.39;73.64;101753.69;5065981;28;20028;-86
2022/06/04 04:37:13;;;;;;;12.23;6.23;;;;;;;12.31;73.02;101731.09;5065671;28;20916;-86
2022/06/04 04:39:38;;;;;;;10.17;6.17;;;;;;;12.56;73.27;101757.75;5065922;28;20099;-86
2022/06/04 04:42:04;;;;;;;13.83;6.60;;;;;;;12.49;73.73;101765.06;5065940;28;20032;-85
2022/06/04 04:44:30;;;;;;;13.60;6.60;;;;;;;12.61;73.74;101770.75;5065297;28;20125;-85
2022/06/04 04:46:55;;;;;;;10.90;6.60;;;;;;;12.63;73.59;101771.38;5065773;28;20048;-85
2022/06/04 04:49:21;;;;;;;8.63;6.47;;;;;;;12.70;73.34;101776.84;5064352;28;20048;-85
2022/06/04 04:51:47;;;;;;;13.97;6.80;;;;;;;12.60;74.32;101778.06;5065816;28;20131;-85
2022/06/04 04:54:13;;;;;;;11.07;6.97;;;;;;;12.53;74.28;101785.34;5065865;28;20985;-85
2022/06/04 04:56:39;;;;;;;11.63;7.00;;;;;;;12.50;74.73;101786.59;5065943;28;20102;-85
2022/06/04 04:59:05;;;;;;;10.33;6.87;;;;;;;12.59;74.78;101791.84;5065334;28;20040;-83
2022/06/04 05:01:30;;;;;;;10.60;7.07;;;;;;;12.50;74.82;101789.31;5065544;28;20032;-85
2022/06/04 05:03:55;;;;;;;15.07;7.13;;;;;;;12.45;75.10;101801.84;5062739;28;20041;-85
2022/06/04 05:06:22;;;;;;;12.83;6.80;;;;;;;12.58;75.29;101801.91;5062435;28;20039;-84
2022/06/04 05:08:49;;;;;;;9.70;6.97;;;;;;;12.61;74.99;101806.94;5081183;28;20439;-84
2022/06/04 05:11:20;;;;;;;12.30;6.93;;;;;;;12.69;74.33;101808.66;5066304;28;20078;-85
2022/06/04 05:13:49;;;;;;;12.00;6.77;;;;;;;12.76;74.19;101797.81;5080807;28;20047;-86
2022/06/04 05:16:20;;;;;;;11.90;6.70;;;;;;;12.80;74.26;101810.78;5047787;28;20040;-86
2022/06/04 05:18:46;;;;;;;11.13;7.00;;;;;;;12.76;74.93;101803.25;5062785;28;20094;-85
2022/06/04 05:21:25;;;;;;;13.37;7.00;;;;;;;12.77;74.14;101797.59;5064918;28;20028;-85
2022/06/04 05:23:54;;;;;;;14.63;7.47;;;;;;;12.66;75.29;101790.84;5064913;28;21295;-85
2022/06/04 05:26:20;;;;;;;12.20;7.13;;;;;;;12.72;75.37;101791.91;5063330;28;20035;-85
2022/06/04 05:28:46;;;;;;;11.87;7.57;;;;;;;12.70;75.05;101787.72;5067284;28;20051;-85
2022/06/04 05:31:12;;;;;;;12.00;7.80;;;;;;;12.56;75.33;101803.97;5065734;28;20036;-86
2022/06/04 05:33:38;;;;;;;12.53;7.27;;;;;;;12.68;74.98;101806.13;5064859;28;20038;-84
2022/06/04 05:36:04;;;;;;;12.03;7.30;;;;;;;12.64;75.31;101808.41;5064595;28;20411;-85
2022/06/04 05:38:34;;;;;;;12.83;7.60;;;;;;;12.67;75.53;101808.00;5064331;28;20036;-85
2022/06/04 05:41:04;;;;;;;11.43;7.43;;;;;;;12.63;76.13;101795.84;5065630;28;20035;-84
2022/06/04 05:43:29;;;;;;;13.60;7.43;;;;;;;12.69;75.72;101814.09;5065360;28;21427;-84
2022/06/04 05:46:06;;;;;;;12.30;7.90;;;;;;;12.59;75.84;101809.03;5065219;28;20036;-85
2022/06/04 05:48:33;;;;;;;13.67;8.33;;;;;;;12.59;76.70;101814.47;5065272;28;20524;-84
2022/06/04 05:50:58;;;;;;;14.73;8.43;;;;;;;12.64;77.13;101819.28;5081264;28;20832;-85
2022/06/04 05:53:25;;;;;;;16.10;8.53;;;;;;;12.64;76.77;101817.41;5065367;28;20564;-85
2022/06/04 05:55:51;;;;;;;13.07;7.63;;;;;;;12.75;76.95;101826.03;5080450;28;20047;-85
2022/06/04 05:58:17;;;;;;;15.40;8.60;;;;;;;12.71;77.08;101822.03;5080131;28;20435;-85
2022/06/04 06:00:43;;;;;;;15.10;8.77;;;;;;;12.71;76.27;101824.75;5065477;28;20169;-85
2022/06/04 06:03:09;;;;;;;15.90;8.03;;;;;;;12.89;76.21;101830.50;5063985;28;20051;-84
2022/06/04 06:05:39;;;;;;;13.83;7.97;;;;;;;12.91;76.78;101831.13;5065293;28;20036;-85
2022/06/04 06:08:05;;;;;;;15.40;8.17;;;;;;;12.93;76.51;101836.34;5065086;28;20068;-84
2022/06/04 06:10:30;;;;;;;13.17;8.50;;;;;;;12.81;76.01;101834.22;5064862;28;20454;-84
2022/06/04 06:12:56;;;;;;;11.50;8.10;;;;;;;12.85;76.62;101829.19;5064825;28;21077;-85
2022/06/04 06:15:21;;;;;;;13.20;8.33;;;;;;;13.02;76.24;101828.88;5046773;28;20126;-84
2022/06/04 06:17:46;;;;;;;15.63;8.30;;;;;;;13.12;75.32;101830.16;5063900;28;20028;-85
2022/06/04 06:20:12;;;;;;;17.20;8.57;;;;;;;13.08;75.45;101841.63;5064921;28;21402;-85
2022/06/04 06:22:38;;;;;;;13.37;8.20;;;;;;;13.18;75.41;101831.22;5065070;28;20040;-84
2022/06/04 06:25:05;;;;;;;14.17;8.27;;;;;;;13.28;75.28;101842.53;5064280;28;20029;-84
2022/06/04 06:27:32;;;;;;;14.60;8.80;;;;;;;13.32;75.05;101849.25;5064613;28;20027;-85
2022/06/04 06:29:57;;;;;;;16.97;8.67;;;;;;;13.38;74.75;101839.47;5064672;28;20067;-84
2022/06/04 06:32:24;;;;;;;12.23;8.57;;;;;;;13.39;74.23;101846.56;5063942;28;20540;-84
2022/06/04 06:34:50;;;;;;;13.67;8.77;;;;;;;13.27;73.84;101835.44;5064731;28;20040;-86
2022/06/04 06:37:16;;;;;;;14.33;8.43;;;;;;;13.14;74.11;101835.38;5080573;28;20451;-85
2022/06/04 06:39:41;;;;;;;12.87;9.10;;;;;;;13.05;74.30;101828.44;5092158;28;20120;-84
2022/06/04 06:42:06;;;;;;;15.63;8.33;;;;;;;13.18;75.36;101842.94;5096223;28;20031;-83
2022/06/04 06:44:32;;;;;;;15.80;8.73;;;;;;;13.23;74.24;101852.34;5071653;28;20046;-84
2022/06/04 06:46:57;;;;;;;15.13;8.60;;;;;;;13.22;74.58;101845.22;5070612;28;20053;-84
2022/06/04 06:49:26;;;;;;;14.97;8.80;;;;;;;13.37;74.74;101854.13;5071305;28;20039;-84
2022/06/04 06:51:55;;;;;;;15.87;8.80;;;;;;;13.44;74.46;101862.31;5071495;28;20221;-83
2022/06/04 06:54:23;;;;;;;14.27;8.80;;;;;;;13.64;74.87;101859.59;5082654;28;20032;-83
2022/06/04 06:56:51;;;;;;;15.60;8.93;;;;;;;13.65;73.90;101862.13;5071405;28;20562;-85
2022/06/04 06:59:20;;;;;;;14.47;8.93;;;;;;;13.71;74.13;101865.03;5071142;28;20521;-85
2022/06/04 07:01:46;;;;;;;13.87;8.63;;;;;;;13.47;73.61;101865.44;5070977;28;20039;-84
2022/06/04 07:04:12;;;;;;;14.90;9.83;;;;;;;13.58;74.08;101866.72;5070751;28;20032;-84
2022/06/04 07:06:40;;;;;;;13.23;8.67;;;;;;;13.71;74.05;101874.06;5071936;28;20040;-84
2022/06/04 07:09:11;;;;;;;11.70;8.37;;;;;;;13.81;72.76;101862.75;5068465;28;20028;-85
2022/06/04 07:11:37;;;;;;;14.13;9.23;;;;;;;13.83;73.16;101847.03;5070509;28;20099;-84
2022/06/04 07:14:02;;;;;;;13.73;9.60;;;;;;;13.79;73.80;101853.94;5070600;28;20615;-85
2022/06/04 07:16:28;;;;;;;16.17;9.10;;;;;;;13.97;72.80;101865.06;5071088;28;20043;-85
2022/06/04 07:18:53;;;;;;;14.13;8.90;;;;;;;13.83;72.03;101858.78;5070702;28;20621;-84
2022/06/04 07:21:19;;;;;;;12.70;8.50;;;;;;;13.95;72.70;101861.72;5070442;28;20520;-84
2022/06/04 07:23:46;;;;;;;15.23;8.53;;;;;;;13.96;72.64;101854.38;5070702;28;20534;-84
2022/06/04 07:26:12;;;;;;;13.40;9.03;;;;;;;14.07;72.39;101858.38;5072085;28;20060;-85
2022/06/04 07:28:38;;;;;;;13.67;9.10;;;;;;;14.22;72.56;101861.69;5070188;28;20113;-85
2022/06/04 07:31:08;;;;;;;13.53;8.27;;;;;;;14.41;71.07;101864.63;5065372;28;20210;-85
2022/06/04 07:33:34;;;;;;;15.17;8.40;;;;;;;14.42;70.62;101867.13;5068903;28;20043;-84
2022/06/04 07:35:59;;;;;;;14.57;8.13;;;;;;;14.53;70.93;101871.09;5069888;28;20111;-84
2022/06/04 07:38:25;;;;;;;13.70;8.57;;;;;;;14.49;70.44;101857.03;5070775;28;20518;-85
2022/06/04 07:40:51;;;;;;;17.03;9.10;;;;;;;14.70;69.51;101874.25;5069256;28;20036;-84
2022/06/04 07:43:16;;;;;;;13.23;8.60;;;;;;;14.77;69.83;101874.19;5069548;28;20039;-85
2022/06/04 07:45:42;;;;;;;11.80;8.27;;;;;;;14.87;69.08;101882.78;5070282;28;20211;-84
2022/06/04 07:48:09;;;;;;;14.43;8.27;;;;;;;14.82;68.92;101871.66;5069794;28;20753;-84
2022/06/04 07:50:37;;;;;;;14.90;8.80;;;;;;;14.92;69.42;101874.78;5069845;28;20044;-85
2022/06/04 07:53:02;;;;;;;17.03;8.80;;;;;;;15.13;68.61;101872.81;5068178;28;20032;-84
2022/06/04 07:55:29;;;;;;;14.27;8.90;;;;;;;15.22;68.51;101876.97;5069803;28;20047;-84
2022/06/04 07:57:54;;;;;;;13.13;8.10;;;;;;;14.99;67.22;101872.88;5075511;28;20043;-85
2022/06/04 08:00:20;;;;;;;13.53;8.70;;;;;;;15.14;68.15;101869.03;5070399;28;20041;-85
2022/06/04 08:02:46;;;;;;;13.83;8.57;;;;;;;15.24;69.56;101874.03;5069663;28;20434;-84
2022/06/04 08:05:13;;;;;;;12.40;9.03;;;;;;;15.19;68.56;101877.41;5070381;28;20040;-86
2022/06/04 08:07:39;;;;;;;12.17;8.50;;;;;;;15.33;68.71;101872.72;5070050;28;20039;-84
2022/06/04 08:10:06;;;;;;;11.60;7.70;;;;;;;15.41;67.70;101885.25;5065886;28;20368;-85
2022/06/04 08:12:34;;;;;;;15.80;8.63;;;;;;;15.39;67.72;101887.38;5069828;28;20106;-84
2022/06/04 08:15:00;;;;;;;13.90;8.67;;;;;;;15.37;67.82;101893.06;5069604;28;20044;-84
2022/06/04 08:17:26;;;;;;;12.33;8.00;;;;;;;15.30;67.30;101882.19;5069896;28;20035;-84
2022/06/04 08:19:52;;;;;;;15.57;8.87;;;;;;;15.19;68.06;101866.50;5068646;28;20043;-84
2022/06/04 08:22:18;;;;;;;12.97;8.63;;;;;;;15.39;68.77;101887.38;5070186;28;20115;-86
2022/06/04 08:24:43;;;;;;;14.93;8.73;;;;;;;15.29;66.96;101876.94;5080844;28;20024;-85
2022/06/04 08:27:09;;;;;;;15.43;9.10;;;;;;;15.33;68.01;101876.28;5082093;28;20159;-84
2022/06/04 08:29:37;;;;;;;12.70;8.60;;;;;;;15.49;69.41;101871.34;5065478;28;20139;-85
2022/06/04 08:32:04;;;;;;;13.50;8.37;;;;;;;15.49;67.12;101868.59;5080228;28;20471;-84
2022/06/04 08:34:31;;;;;;;16.93;9.27;;;;;;;15.58;68.79;101861.84;5069709;28;20500;-84
2022/06/04 08:36:57;;;;;;;12.53;8.30;;;;;;;15.83;67.54;101861.06;5069806;28;20075;-84
2022/06/04 08:39:22;;;;;;;14.03;8.40;;;;;;;16.00;66.92;101851.25;5069539;28;20653;-85
2022/06/04 08:42:08;;;;;;;12.73;8.40;;;;;;;16.28;66.31;101860.88;5069669;28;20047;-85
2022/06/04 08:44:51;;;;;;;14.77;8.07;;;;;;;16.54;65.20;101856.22;5069868;28;20632;-85
2022/06/04 08:47:35;;;;;;;11.77;8.30;;;;;;;16.63;64.90;101862.19;5069214;28;20051;-85
2022/06/04 08:50:24;;;;;;;14.05;9.18;;;;;;;16.57;64.67;101863.13;5068923;28;20032;-85
2022/06/04 08:52:58;;;;;;;13.27;8.87;;;;;;;16.67;65.36;101867.00;5069621;28;20430;-87
2022/06/04 08:58:55;;;;;;;16.38;8.52;;;;;;;16.78;63.43;101861.81;5069266;28;20161;-83
2022/06/04 09:01:29;;;;;;;16.20;8.73;;;;;;;17.07;63.79;101862.13;5067671;28;20487;-85
2022/06/04 09:04:45;;;;;;;10.93;7.43;;;;;;;17.14;62.80;101877.41;5069158;28;20029;-85
2022/06/04 09:07:25;;;;;;;13.17;8.40;;;;;;;17.28;62.21;101874.50;5069138;28;20032;-85
2022/06/04 09:10:21;;;;;;;13.40;8.57;;;;;;;17.58;63.37;101885.44;5067279;28;20036;-84
2022/06/04 09:12:54;;;;;;;11.87;7.87;;;;;;;17.80;62.05;101901.34;5066635;28;20055;-85
2022/06/04 09:15:37;;;;;;;15.30;8.20;;;;;;;17.97;61.21;101901.53;5069462;28;20043;-83
2022/06/04 09:18:16;;;;;;;12.87;8.13;;;;;;;18.23;60.87;101906.56;5066994;28;20467;-84
2022/06/04 09:20:51;;;;;;;10.93;7.60;;;;;;;18.12;60.22;101895.59;5074068;28;20510;-84
2022/06/04 09:23:22;;;;;;;14.13;8.20;;;;;;;18.46;59.57;101904.09;5068655;28;20050;-85
2022/06/04 09:25:57;;;;;;;10.67;7.80;;;;;;;18.55;59.43;101898.00;5068202;28;20059;-84
2022/06/04 09:28:45;;;;;;;13.20;8.47;;;;;;;18.43;57.06;101888.94;5068845;28;20329;-84
2022/06/04 09:31:26;;;;;;;13.57;8.73;;;;;;;18.59;59.00;101887.38;5035521;28;20044;-84
2022/06/04 09:34:02;;;;;;;13.17;8.30;;;;;;;18.79;57.73;101875.16;5069587;28;20047;-85
2022/06/04 09:36:32;;;;;;;13.37;8.50;;;;;;;18.69;57.30;101864.81;5068542;28;20098;-85
2022/06/04 09:39:02;;;;;;;15.80;8.50;;;;;;;19.13;57.51;101873.41;5067486;28;20555;-85
2022/06/04 09:41:30;;;;;;;11.57;7.80;;;;;;;19.39;56.99;101885.75;5068725;28;20038;-85
2022/06/04 09:44:05;;;;;;;11.82;8.32;;;;;;;19.60;56.77;101886.13;5067658;28;20109;-85
2022/06/04 09:46:31;;;;;;;13.23;8.00;;;;;;;19.31;55.60;101883.41;5068520;28;20121;-86
2022/06/04 09:48:58;;;;;;;12.82;8.15;;;;;;;19.46;56.04;101882.00;5067447;28;20479;-84
2022/06/04 09:51:27;;;;;;;15.07;8.65;;;;;;;19.50;56.08;101884.03;5068047;28;20586;-84
2022/06/04 09:54:05;;;;;;;11.98;8.65;;;;;;;19.38;54.28;101878.59;5067496;28;20031;-83
2022/06/04 09:56:30;;;;;;;14.15;8.45;;;;;;;19.33;54.33;101881.22;5068183;28;21412;-86
2022/06/04 09:59:29;;;;;;;12.82;7.70;;;;;;;19.66;55.50;101887.88;5067856;28;20462;-85
2022/06/04 10:02:16;;;;;;;12.13;8.90;;;;;;;19.31;55.86;101882.53;5064667;28;20100;-85
2022/06/04 10:04:45;;;;;;;9.02;7.78;;;;;;;19.52;56.90;101895.59;5067537;28;20039;-84
2022/06/04 10:07:14;;;;;;;10.55;8.25;;;;;;;19.59;56.20;101881.69;5068668;28;20047;-86
2022/06/04 10:09:58;;;;;;;12.07;8.80;;;;;;;19.51;56.53;101895.84;5067974;28;20035;-84
2022/06/04 10:15:37;;;;;;;13.02;8.00;;;;;;;19.82;57.42;101904.69;5067434;28;20062;-84
2022/06/04 10:18:30;;;;;;;14.63;9.07;;;;;;;19.94;55.17;101908.19;5068288;28;20028;-85
2022/06/04 10:21:02;;;;;;;11.95;8.57;;;;;;;19.70;56.05;101908.28;5064474;28;20040;-84
2022/06/04 10:23:31;;;;;;;12.65;8.80;;;;;;;19.86;58.04;101908.59;5068042;28;20039;-84
2022/06/04 10:26:14;;;;;;;11.80;7.55;;;;;;;20.34;56.49;101903.59;5067194;28;20659;-84
2022/06/04 10:28:52;;;;;;;13.02;8.30;;;;;;;20.19;54.84;101905.00;5067909;28;21450;-85
2022/06/04 10:31:30;;;;;;;13.55;8.48;;;;;;;20.03;54.69;101903.94;5068325;28;20039;-84
2022/06/04 10:34:07;;;;;;;10.93;8.40;;;;;;;20.53;55.00;101904.97;5082872;28;20096;-86
2022/06/04 10:36:48;;;;;;;10.27;8.65;;;;;;;20.52;53.08;101899.72;5066028;28;20687;-85
2022/06/04 10:39:13;;;;;;;14.07;8.48;;;;;;;20.70;55.19;101876.63;5067663;28;20071;-85
2022/06/04 10:41:54;;;;;;;11.43;8.68;;;;;;;21.33;54.26;101893.63;5067730;28;21522;-84
2022/06/04 10:44:30;;;;;;;13.52;8.57;;;;;;;21.42;52.29;101889.31;5067022;28;21369;-85
2022/06/04 10:47:28;;;;;;;12.35;8.43;;;;;;;21.77;52.27;101889.13;5068268;28;20048;-85
2022/06/04 10:49:59;;;;;;;11.75;7.90;;;;;;;22.40;51.48;101892.13;5028478;28;20689;-85
2022/06/04 10:52:39;;;;;;;11.45;9.02;;;;;;;22.48;51.39;101888.00;5068050;28;20137;-84
2022/06/04 10:55:04;;;;;;;12.75;8.68;;;;;;;22.84;49.64;101902.03;5068024;28;20035;-85
2022/06/04 10:57:36;;;;;;;13.82;8.40;;;;;;;23.12;47.70;101902.69;5067064;28;21411;-87
2022/06/04 11:00:11;;;;;;;11.43;8.50;;;;;;;23.22;49.96;101902.75;5062325;28;20067;-84
2022/06/04 11:02:47;;;;;;;11.18;8.25;;;;;;;22.52;47.17;101902.94;5065747;28;20127;-84
2022/06/04 11:05:28;;;;;;;13.15;8.20;;;;;;;22.35;47.57;101903.94;5068076;28;20040;-84
2022/06/04 11:08:04;;;;;;;12.63;8.55;;;;;;;22.06;50.56;101906.22;5067252;28;20025;-85
2022/06/04 11:10:38;;;;;;;11.90;8.57;;;;;;;22.38;49.65;101903.41;5079573;28;20333;-84
2022/06/04 11:13:08;;;;;;;10.05;8.10;;;;;;;22.55;49.63;101913.47;5062162;28;20115;-85
2022/06/04 11:15:41;;;;;;;12.70;8.32;;;;;;;22.73;48.05;101907.47;5067528;28;20028;-85
2022/06/04 11:18:16;;;;;;;11.45;8.32;;;;;;;22.79;48.26;101918.56;5085929;28;20111;-84
2022/06/04 11:21:01;;;;;;;9.52;7.45;;;;;;;23.00;47.33;101912.03;5090105;28;20024;-84
2022/06/04 11:23:39;;;;;;;10.45;7.78;;;;;;;22.80;47.67;101909.19;5086558;28;20097;-85
2022/06/04 11:26:16;;;;;;;12.18;8.43;;;;;;;22.21;49.11;101899.97;5068932;28;20402;-83
2022/06/04 11:28:41;;;;;;;10.73;8.32;;;;;;;22.12;50.27;101910.66;5067963;28;20127;-84
2022/06/04 11:31:15;;;;;;;10.07;7.80;;;;;;;22.24;50.19;101913.22;5068161;28;20039;-86
2022/06/04 11:33:51;;;;;;;11.77;8.85;;;;;;;22.18;50.26;101906.84;5067243;28;20036;-85
2022/06/04 11:36:56;;;;;;;14.43;8.65;;;;;;;22.23;49.16;101906.03;5067541;28;20037;-84
2022/06/04 11:39:37;;;;;;;;;;;;;;;21.99;49.48;101898.16;5068443;28;20523;-84
2022/06/04 11:42:05;;;;;;;14.48;9.45;;;;;;;21.56;49.79;101908.22;5066611;28;20394;-86
2022/06/04 11:44:40;;;;;;;14.18;9.05;;;;;;;21.69;51.50;101904.19;5082524;28;20133;-86
2022/06/04 11:47:25;;;;;;;12.93;9.20;;;;;;;21.52;50.96;101904.28;5067432;28;20115;-86
2022/06/04 11:50:02;;;;;;;12.80;8.40;;;;;;;21.35;51.51;101898.88;5067969;28;20119;-86
2022/06/04 11:52:37;;;;;;;13.15;8.38;;;;;;;21.57;50.94;101888.66;5068257;28;20028;-88